sensor_id;sensor_type;location;lat;lon;timestamp;P1;durP1;ratioP1;P2;durP2;ratioP2
66886;SDS011;67239;51.680;5.976;2023-05-20T00:00:28;7.80;;;2.40;;
66886;SDS011;67239;51.680;5.976;2023-05-20T00:03:14;6.57;;;2.33;;
66886;SDS011;67239;51.680;5.976;2023-05-20T00:06:00;5.50;;;2.20;;
66886;SDS011;67239;51.680;5.976;2023-05-20T00:08:46;6.03;;;2.20;;
66886;SDS011;67239;51.680;5.976;2023-05-20T00:11:31;7.47;;;2.75;;
66886;SDS011;67239;51.680;5.976;2023-05-20T00:14:16;6.35;;;2.50;;
66886;SDS011;67239;51.680;5.976;2023-05-20T00:17:01;7.70;;;2.45;;
66886;SDS011;67239;51.680;5.976;2023-05-20T00:19:47;7.07;;;2.47;;
66886;SDS011;67239;51.680;5.976;2023-05-20T00:22:32;5.43;;;2.22;;
66886;SDS011;67239;51.680;5.976;2023-05-20T00:25:17;7.03;;;2.58;;
66886;SDS011;67239;51.680;5.976;2023-05-20T00:28:03;7.38;;;2.63;;
66886;SDS011;67239;51.680;5.976;2023-05-20T00:30:50;6.95;;;2.83;;
66886;SDS011;67239;51.680;5.976;2023-05-20T00:33:35;4.68;;;2.60;;
66886;SDS011;67239;51.680;5.976;2023-05-20T00:36:20;4.90;;;2.33;;
66886;SDS011;67239;51.680;5.976;2023-05-20T00:39:05;6.57;;;2.45;;
66886;SDS011;67239;51.680;5.976;2023-05-20T00:41:51;7.15;;;2.65;;
66886;SDS011;67239;51.680;5.976;2023-05-20T00:44:36;9.15;;;2.30;;
66886;SDS011;67239;51.680;5.976;2023-05-20T00:47:25;5.40;;;2.40;;
66886;SDS011;67239;51.680;5.976;2023-05-20T00:50:18;7.78;;;2.67;;
66886;SDS011;67239;51.680;5.976;2023-05-20T00:53:05;8.50;;;2.60;;
66886;SDS011;67239;51.680;5.976;2023-05-20T00:55:50;5.95;;;2.50;;
66886;SDS011;67239;51.680;5.976;2023-05-20T00:58:37;6.35;;;2.60;;
66886;SDS011;67239;51.680;5.976;2023-05-20T01:01:23;6.65;;;2.63;;
66886;SDS011;67239;51.680;5.976;2023-05-20T01:04:09;8.68;;;2.78;;
66886;SDS011;67239;51.680;5.976;2023-05-20T01:06:54;8.60;;;2.70;;
66886;SDS011;67239;51.680;5.976;2023-05-20T01:09:41;7.07;;;2.75;;
66886;SDS011;67239;51.680;5.976;2023-05-20T01:12:29;10.57;;;3.10;;
66886;SDS011;67239;51.680;5.976;2023-05-20T01:15:23;6.60;;;2.53;;
66886;SDS011;67239;51.680;5.976;2023-05-20T01:18:11;7.00;;;2.80;;
66886;SDS011;67239;51.680;5.976;2023-05-20T01:21:02;6.20;;;2.85;;
66886;SDS011;67239;51.680;5.976;2023-05-20T01:23:48;4.13;;;2.60;;
66886;SDS011;67239;51.680;5.976;2023-05-20T01:26:33;7.03;;;2.83;;
66886;SDS011;67239;51.680;5.976;2023-05-20T01:29:23;5.78;;;2.67;;
66886;SDS011;67239;51.680;5.976;2023-05-20T01:32:22;5.70;;;3.17;;
66886;SDS011;67239;51.680;5.976;2023-05-20T01:35:16;7.30;;;3.25;;
66886;SDS011;67239;51.680;5.976;2023-05-20T01:38:03;7.28;;;2.60;;
66886;SDS011;67239;51.680;5.976;2023-05-20T01:40:50;5.18;;;3.10;;
66886;SDS011;67239;51.680;5.976;2023-05-20T01:43:39;8.00;;;3.03;;
66886;SDS011;67239;51.680;5.976;2023-05-20T01:46:25;6.40;;;3.00;;
66886;SDS011;67239;51.680;5.976;2023-05-20T01:49:11;7.35;;;3.10;;
66886;SDS011;67239;51.680;5.976;2023-05-20T01:51:56;8.43;;;3.10;;
66886;SDS011;67239;51.680;5.976;2023-05-20T01:54:42;6.60;;;2.53;;
66886;SDS011;67239;51.680;5.976;2023-05-20T01:57:34;5.57;;;2.83;;
66886;SDS011;67239;51.680;5.976;2023-05-20T02:00:21;7.95;;;3.08;;
66886;SDS011;67239;51.680;5.976;2023-05-20T02:03:07;7.72;;;3.08;;
66886;SDS011;67239;51.680;5.976;2023-05-20T02:05:53;8.02;;;3.10;;
66886;SDS011;67239;51.680;5.976;2023-05-20T02:08:39;6.00;;;2.90;;
66886;SDS011;67239;51.680;5.976;2023-05-20T02:11:25;5.93;;;2.60;;
66886;SDS011;67239;51.680;5.976;2023-05-20T02:14:11;5.60;;;3.08;;
66886;SDS011;67239;51.680;5.976;2023-05-20T02:16:57;5.93;;;2.90;;
66886;SDS011;67239;51.680;5.976;2023-05-20T02:19:43;7.07;;;3.25;;
66886;SDS011;67239;51.680;5.976;2023-05-20T02:22:30;5.93;;;3.17;;
66886;SDS011;67239;51.680;5.976;2023-05-20T02:25:16;6.78;;;3.10;;
66886;SDS011;67239;51.680;5.976;2023-05-20T02:28:01;5.97;;;3.28;;
66886;SDS011;67239;51.680;5.976;2023-05-20T02:30:49;8.35;;;3.13;;
66886;SDS011;67239;51.680;5.976;2023-05-20T02:33:35;5.97;;;2.78;;
66886;SDS011;67239;51.680;5.976;2023-05-20T02:36:21;5.65;;;2.60;;
66886;SDS011;67239;51.680;5.976;2023-05-20T02:39:07;4.70;;;2.80;;
66886;SDS011;67239;51.680;5.976;2023-05-20T02:41:53;7.10;;;3.58;;
66886;SDS011;67239;51.680;5.976;2023-05-20T02:44:38;7.57;;;3.22;;
66886;SDS011;67239;51.680;5.976;2023-05-20T02:47:24;10.38;;;3.78;;
66886;SDS011;67239;51.680;5.976;2023-05-20T02:50:09;7.72;;;3.17;;
66886;SDS011;67239;51.680;5.976;2023-05-20T02:52:55;6.18;;;3.17;;
66886;SDS011;67239;51.680;5.976;2023-05-20T02:55:41;6.97;;;3.10;;
66886;SDS011;67239;51.680;5.976;2023-05-20T02:58:28;4.30;;;3.10;;
66886;SDS011;67239;51.680;5.976;2023-05-20T03:01:16;6.75;;;3.20;;
66886;SDS011;67239;51.680;5.976;2023-05-20T03:04:01;7.95;;;3.17;;
66886;SDS011;67239;51.680;5.976;2023-05-20T03:06:47;8.35;;;3.40;;
66886;SDS011;67239;51.680;5.976;2023-05-20T03:09:33;8.52;;;3.08;;
66886;SDS011;67239;51.680;5.976;2023-05-20T03:12:18;7.57;;;3.60;;
66886;SDS011;67239;51.680;5.976;2023-05-20T03:15:03;7.50;;;3.22;;
66886;SDS011;67239;51.680;5.976;2023-05-20T03:17:52;5.50;;;3.25;;
66886;SDS011;67239;51.680;5.976;2023-05-20T03:20:38;8.00;;;3.65;;
66886;SDS011;67239;51.680;5.976;2023-05-20T03:23:25;7.20;;;3.45;;
66886;SDS011;67239;51.680;5.976;2023-05-20T03:26:10;7.05;;;3.58;;
66886;SDS011;67239;51.680;5.976;2023-05-20T03:28:57;8.13;;;3.47;;
66886;SDS011;67239;51.680;5.976;2023-05-20T03:31:42;8.32;;;3.50;;
66886;SDS011;67239;51.680;5.976;2023-05-20T03:34:28;5.80;;;3.75;;
66886;SDS011;67239;51.680;5.976;2023-05-20T03:37:14;9.82;;;3.97;;
66886;SDS011;67239;51.680;5.976;2023-05-20T03:39:59;6.65;;;3.70;;
66886;SDS011;67239;51.680;5.976;2023-05-20T03:42:45;8.20;;;3.95;;
66886;SDS011;67239;51.680;5.976;2023-05-20T03:45:31;9.80;;;3.83;;
66886;SDS011;67239;51.680;5.976;2023-05-20T03:48:23;7.97;;;3.88;;
66886;SDS011;67239;51.680;5.976;2023-05-20T03:51:08;6.57;;;3.50;;
66886;SDS011;67239;51.680;5.976;2023-05-20T03:53:54;6.95;;;3.78;;
66886;SDS011;67239;51.680;5.976;2023-05-20T03:56:39;10.60;;;3.92;;
66886;SDS011;67239;51.680;5.976;2023-05-20T03:59:25;8.32;;;4.32;;
66886;SDS011;67239;51.680;5.976;2023-05-20T04:02:12;6.85;;;3.75;;
66886;SDS011;67239;51.680;5.976;2023-05-20T04:04:57;8.85;;;3.75;;
66886;SDS011;67239;51.680;5.976;2023-05-20T04:07:47;9.93;;;4.38;;
66886;SDS011;67239;51.680;5.976;2023-05-20T04:10:34;7.15;;;3.55;;
66886;SDS011;67239;51.680;5.976;2023-05-20T04:13:19;7.18;;;3.88;;
66886;SDS011;67239;51.680;5.976;2023-05-20T04:16:05;10.73;;;4.28;;
66886;SDS011;67239;51.680;5.976;2023-05-20T04:18:51;6.75;;;4.05;;
66886;SDS011;67239;51.680;5.976;2023-05-20T04:21:37;7.82;;;3.42;;
66886;SDS011;67239;51.680;5.976;2023-05-20T04:24:23;11.00;;;4.07;;
66886;SDS011;67239;51.680;5.976;2023-05-20T04:27:10;5.78;;;3.65;;
66886;SDS011;67239;51.680;5.976;2023-05-20T04:29:56;9.15;;;4.20;;
66886;SDS011;67239;51.680;5.976;2023-05-20T04:32:43;6.38;;;3.55;;
66886;SDS011;67239;51.680;5.976;2023-05-20T04:35:28;8.05;;;4.10;;
66886;SDS011;67239;51.680;5.976;2023-05-20T04:38:18;7.78;;;3.63;;
66886;SDS011;67239;51.680;5.976;2023-05-20T04:41:03;7.30;;;3.67;;
66886;SDS011;67239;51.680;5.976;2023-05-20T04:43:49;6.15;;;3.60;;
66886;SDS011;67239;51.680;5.976;2023-05-20T04:46:34;5.45;;;3.67;;
66886;SDS011;67239;51.680;5.976;2023-05-20T04:49:20;7.90;;;3.50;;
66886;SDS011;67239;51.680;5.976;2023-05-20T04:52:05;5.03;;;3.28;;
66886;SDS011;67239;51.680;5.976;2023-05-20T04:54:51;6.53;;;3.10;;
66886;SDS011;67239;51.680;5.976;2023-05-20T04:57:42;6.00;;;3.53;;
66886;SDS011;67239;51.680;5.976;2023-05-20T05:00:27;7.38;;;3.15;;
66886;SDS011;67239;51.680;5.976;2023-05-20T05:03:13;6.93;;;3.38;;
66886;SDS011;67239;51.680;5.976;2023-05-20T05:05:58;6.93;;;3.22;;
66886;SDS011;67239;51.680;5.976;2023-05-20T05:08:44;7.20;;;3.22;;
66886;SDS011;67239;51.680;5.976;2023-05-20T05:11:29;6.60;;;3.20;;
66886;SDS011;67239;51.680;5.976;2023-05-20T05:14:15;5.80;;;3.08;;
66886;SDS011;67239;51.680;5.976;2023-05-20T05:17:00;5.72;;;3.25;;
66886;SDS011;67239;51.680;5.976;2023-05-20T05:19:46;4.95;;;3.00;;
66886;SDS011;67239;51.680;5.976;2023-05-20T05:22:31;4.97;;;2.75;;
66886;SDS011;67239;51.680;5.976;2023-05-20T05:25:19;4.25;;;2.60;;
66886;SDS011;67239;51.680;5.976;2023-05-20T05:28:04;8.32;;;2.78;;
66886;SDS011;67239;51.680;5.976;2023-05-20T05:30:50;4.97;;;2.60;;
66886;SDS011;67239;51.680;5.976;2023-05-20T05:33:38;6.55;;;2.75;;
66886;SDS011;67239;51.680;5.976;2023-05-20T05:36:24;6.90;;;2.60;;
66886;SDS011;67239;51.680;5.976;2023-05-20T05:39:12;4.43;;;2.67;;
66886;SDS011;67239;51.680;5.976;2023-05-20T05:41:57;3.97;;;2.30;;
66886;SDS011;67239;51.680;5.976;2023-05-20T05:44:44;6.28;;;2.20;;
66886;SDS011;67239;51.680;5.976;2023-05-20T05:47:29;6.03;;;2.28;;
66886;SDS011;67239;51.680;5.976;2023-05-20T05:50:17;4.57;;;2.42;;
66886;SDS011;67239;51.680;5.976;2023-05-20T05:53:04;5.60;;;2.00;;
66886;SDS011;67239;51.680;5.976;2023-05-20T05:55:53;4.70;;;2.15;;
66886;SDS011;67239;51.680;5.976;2023-05-20T05:58:40;4.95;;;2.20;;
66886;SDS011;67239;51.680;5.976;2023-05-20T06:01:28;3.40;;;2.08;;
66886;SDS011;67239;51.680;5.976;2023-05-20T06:04:15;3.95;;;2.08;;
66886;SDS011;67239;51.680;5.976;2023-05-20T06:07:01;3.35;;;2.13;;
66886;SDS011;67239;51.680;5.976;2023-05-20T06:09:47;4.55;;;2.33;;
66886;SDS011;67239;51.680;5.976;2023-05-20T06:12:34;4.03;;;2.53;;
66886;SDS011;67239;51.680;5.976;2023-05-20T06:15:19;3.75;;;2.25;;
66886;SDS011;67239;51.680;5.976;2023-05-20T06:18:04;3.30;;;2.50;;
66886;SDS011;67239;51.680;5.976;2023-05-20T06:20:55;3.85;;;2.40;;
66886;SDS011;67239;51.680;5.976;2023-05-20T06:23:42;5.43;;;2.40;;
66886;SDS011;67239;51.680;5.976;2023-05-20T06:26:30;4.97;;;2.30;;
66886;SDS011;67239;51.680;5.976;2023-05-20T06:29:16;6.00;;;2.30;;
66886;SDS011;67239;51.680;5.976;2023-05-20T06:32:02;5.05;;;2.53;;
66886;SDS011;67239;51.680;5.976;2023-05-20T06:34:47;5.20;;;2.08;;
66886;SDS011;67239;51.680;5.976;2023-05-20T06:37:32;5.90;;;2.38;;
66886;SDS011;67239;51.680;5.976;2023-05-20T06:40:18;4.20;;;2.13;;
66886;SDS011;67239;51.680;5.976;2023-05-20T06:43:03;4.72;;;2.17;;
66886;SDS011;67239;51.680;5.976;2023-05-20T06:46:21;4.63;;;2.47;;
66886;SDS011;67239;51.680;5.976;2023-05-20T06:49:12;4.75;;;2.40;;
66886;SDS011;67239;51.680;5.976;2023-05-20T06:51:57;6.82;;;2.40;;
66886;SDS011;67239;51.680;5.976;2023-05-20T06:54:43;3.88;;;1.90;;
66886;SDS011;67239;51.680;5.976;2023-05-20T06:57:30;5.15;;;2.10;;
66886;SDS011;67239;51.680;5.976;2023-05-20T07:00:16;5.97;;;2.38;;
66886;SDS011;67239;51.680;5.976;2023-05-20T07:03:02;5.40;;;2.33;;
66886;SDS011;67239;51.680;5.976;2023-05-20T07:05:49;4.00;;;1.92;;
66886;SDS011;67239;51.680;5.976;2023-05-20T07:08:37;3.80;;;1.90;;
66886;SDS011;67239;51.680;5.976;2023-05-20T07:11:25;4.93;;;2.00;;
66886;SDS011;67239;51.680;5.976;2023-05-20T07:14:12;3.72;;;2.10;;
66886;SDS011;67239;51.680;5.976;2023-05-20T07:16:57;3.78;;;2.17;;
66886;SDS011;67239;51.680;5.976;2023-05-20T07:19:43;4.50;;;2.22;;
66886;SDS011;67239;51.680;5.976;2023-05-20T07:22:29;3.47;;;2.20;;
66886;SDS011;67239;51.680;5.976;2023-05-20T07:25:51;3.90;;;2.30;;
66886;SDS011;67239;51.680;5.976;2023-05-20T07:28:38;3.58;;;2.20;;
66886;SDS011;67239;51.680;5.976;2023-05-20T07:31:24;3.25;;;2.25;;
66886;SDS011;67239;51.680;5.976;2023-05-20T07:34:11;5.03;;;2.35;;
66886;SDS011;67239;51.680;5.976;2023-05-20T07:36:58;3.92;;;2.22;;
66886;SDS011;67239;51.680;5.976;2023-05-20T07:39:44;5.38;;;2.40;;
66886;SDS011;67239;51.680;5.976;2023-05-20T07:42:30;5.07;;;2.20;;
66886;SDS011;67239;51.680;5.976;2023-05-20T07:45:18;3.65;;;2.13;;
66886;SDS011;67239;51.680;5.976;2023-05-20T07:48:04;3.90;;;1.90;;
66886;SDS011;67239;51.680;5.976;2023-05-20T07:50:52;2.90;;;1.80;;
66886;SDS011;67239;51.680;5.976;2023-05-20T07:53:41;3.58;;;2.35;;
66886;SDS011;67239;51.680;5.976;2023-05-20T07:56:26;3.97;;;2.20;;
66886;SDS011;67239;51.680;5.976;2023-05-20T07:59:13;4.47;;;2.28;;
66886;SDS011;67239;51.680;5.976;2023-05-20T08:02:01;3.58;;;2.42;;
66886;SDS011;67239;51.680;5.976;2023-05-20T08:04:47;5.80;;;2.35;;
66886;SDS011;67239;51.680;5.976;2023-05-20T08:07:33;3.85;;;2.33;;
66886;SDS011;67239;51.680;5.976;2023-05-20T08:10:18;3.78;;;2.17;;
66886;SDS011;67239;51.680;5.976;2023-05-20T08:13:05;3.75;;;2.20;;
66886;SDS011;67239;51.680;5.976;2023-05-20T08:15:51;8.82;;;2.55;;
66886;SDS011;67239;51.680;5.976;2023-05-20T08:18:38;4.93;;;2.42;;
66886;SDS011;67239;51.680;5.976;2023-05-20T08:21:24;8.63;;;2.72;;
66886;SDS011;67239;51.680;5.976;2023-05-20T08:24:09;3.53;;;2.08;;
66886;SDS011;67239;51.680;5.976;2023-05-20T08:26:54;4.25;;;2.03;;
66886;SDS011;67239;51.680;5.976;2023-05-20T08:29:43;2.92;;;2.00;;
66886;SDS011;67239;51.680;5.976;2023-05-20T08:32:29;6.63;;;2.10;;
66886;SDS011;67239;51.680;5.976;2023-05-20T08:35:16;3.83;;;2.40;;
66886;SDS011;67239;51.680;5.976;2023-05-20T08:38:01;4.43;;;2.10;;
66886;SDS011;67239;51.680;5.976;2023-05-20T08:40:50;3.47;;;2.13;;
66886;SDS011;67239;51.680;5.976;2023-05-20T08:43:42;5.22;;;2.30;;
66886;SDS011;67239;51.680;5.976;2023-05-20T08:46:33;4.68;;;2.22;;
66886;SDS011;67239;51.680;5.976;2023-05-20T08:49:20;2.03;;;1.70;;
66886;SDS011;67239;51.680;5.976;2023-05-20T08:52:06;6.00;;;2.40;;
66886;SDS011;67239;51.680;5.976;2023-05-20T08:54:58;3.03;;;2.00;;
66886;SDS011;67239;51.680;5.976;2023-05-20T08:57:44;3.47;;;1.80;;
66886;SDS011;67239;51.680;5.976;2023-05-20T09:00:29;3.50;;;1.80;;
66886;SDS011;67239;51.680;5.976;2023-05-20T09:03:16;6.20;;;1.55;;
66886;SDS011;67239;51.680;5.976;2023-05-20T09:06:06;3.55;;;1.50;;
66886;SDS011;67239;51.680;5.976;2023-05-20T09:08:52;4.28;;;1.52;;
66886;SDS011;67239;51.680;5.976;2023-05-20T09:11:38;4.32;;;1.33;;
66886;SDS011;67239;51.680;5.976;2023-05-20T09:14:25;3.03;;;1.15;;
66886;SDS011;67239;51.680;5.976;2023-05-20T09:17:12;3.33;;;1.23;;
66886;SDS011;67239;51.680;5.976;2023-05-20T09:19:58;2.17;;;1.45;;
66886;SDS011;67239;51.680;5.976;2023-05-20T09:22:43;2.65;;;1.60;;
66886;SDS011;67239;51.680;5.976;2023-05-20T09:25:29;3.10;;;1.58;;
66886;SDS011;67239;51.680;5.976;2023-05-20T09:28:15;2.63;;;1.63;;
66886;SDS011;67239;51.680;5.976;2023-05-20T09:31:01;5.88;;;1.65;;
66886;SDS011;67239;51.680;5.976;2023-05-20T09:33:48;4.45;;;1.88;;
66886;SDS011;67239;51.680;5.976;2023-05-20T09:36:34;3.53;;;1.77;;
66886;SDS011;67239;51.680;5.976;2023-05-20T09:39:23;2.15;;;1.63;;
66886;SDS011;67239;51.680;5.976;2023-05-20T09:42:17;3.50;;;1.88;;
66886;SDS011;67239;51.680;5.976;2023-05-20T09:45:10;3.97;;;1.85;;
66886;SDS011;67239;51.680;5.976;2023-05-20T09:47:56;9.55;;;1.90;;
66886;SDS011;67239;51.680;5.976;2023-05-20T09:50:43;3.22;;;1.65;;
66886;SDS011;67239;51.680;5.976;2023-05-20T09:53:29;8.20;;;2.00;;
66886;SDS011;67239;51.680;5.976;2023-05-20T09:56:15;3.30;;;1.60;;
66886;SDS011;67239;51.680;5.976;2023-05-20T09:59:04;3.03;;;1.30;;
66886;SDS011;67239;51.680;5.976;2023-05-20T10:01:50;5.15;;;1.80;;
66886;SDS011;67239;51.680;5.976;2023-05-20T10:04:36;2.60;;;1.77;;
66886;SDS011;67239;51.680;5.976;2023-05-20T10:14:25;3.35;;;1.30;;
66886;SDS011;67239;51.680;5.976;2023-05-20T10:17:38;2.97;;;2.10;;
66886;SDS011;67239;51.680;5.976;2023-05-20T10:20:47;3.13;;;1.70;;
66886;SDS011;67239;51.680;5.976;2023-05-20T10:23:35;3.15;;;1.77;;
66886;SDS011;67239;51.680;5.976;2023-05-20T10:26:21;2.50;;;1.38;;
66886;SDS011;67239;51.680;5.976;2023-05-20T10:29:13;3.22;;;1.90;;
66886;SDS011;67239;51.680;5.976;2023-05-20T10:32:04;3.20;;;1.40;;
66886;SDS011;67239;51.680;5.976;2023-05-20T10:34:49;2.33;;;1.40;;
66886;SDS011;67239;51.680;5.976;2023-05-20T10:37:41;2.35;;;1.60;;
66886;SDS011;67239;51.680;5.976;2023-05-20T10:40:29;4.25;;;1.67;;
66886;SDS011;67239;51.680;5.976;2023-05-20T10:43:16;3.67;;;1.40;;
66886;SDS011;67239;51.680;5.976;2023-05-20T10:46:16;3.20;;;1.40;;
66886;SDS011;67239;51.680;5.976;2023-05-20T10:49:22;2.78;;;1.58;;
66886;SDS011;67239;51.680;5.976;2023-05-20T10:52:12;2.05;;;1.55;;
66886;SDS011;67239;51.680;5.976;2023-05-20T10:54:59;3.83;;;1.55;;
66886;SDS011;67239;51.680;5.976;2023-05-20T10:57:45;2.30;;;1.33;;
66886;SDS011;67239;51.680;5.976;2023-05-20T11:00:34;3.55;;;1.27;;
66886;SDS011;67239;51.680;5.976;2023-05-20T11:03:21;7.93;;;1.70;;
66886;SDS011;67239;51.680;5.976;2023-05-20T11:06:11;3.13;;;1.40;;
66886;SDS011;67239;51.680;5.976;2023-05-20T11:09:04;2.63;;;1.40;;
66886;SDS011;67239;51.680;5.976;2023-05-20T11:11:52;3.00;;;1.40;;
66886;SDS011;67239;51.680;5.976;2023-05-20T11:14:39;2.08;;;1.48;;
66886;SDS011;67239;51.680;5.976;2023-05-20T11:17:24;3.78;;;1.75;;
66886;SDS011;67239;51.680;5.976;2023-05-20T11:20:13;2.20;;;1.52;;
66886;SDS011;67239;51.680;5.976;2023-05-20T11:22:58;2.75;;;1.58;;
66886;SDS011;67239;51.680;5.976;2023-05-20T11:25:43;2.05;;;1.60;;
66886;SDS011;67239;51.680;5.976;2023-05-20T11:28:29;2.38;;;1.70;;
66886;SDS011;67239;51.680;5.976;2023-05-20T11:31:15;3.10;;;1.60;;
66886;SDS011;67239;51.680;5.976;2023-05-20T11:34:00;4.35;;;1.70;;
66886;SDS011;67239;51.680;5.976;2023-05-20T11:36:46;3.08;;;1.52;;
66886;SDS011;67239;51.680;5.976;2023-05-20T11:39:35;2.50;;;1.60;;
66886;SDS011;67239;51.680;5.976;2023-05-20T11:42:22;2.58;;;1.55;;
66886;SDS011;67239;51.680;5.976;2023-05-20T11:45:11;2.42;;;1.48;;
66886;SDS011;67239;51.680;5.976;2023-05-20T11:47:58;2.17;;;1.10;;
66886;SDS011;67239;51.680;5.976;2023-05-20T11:50:46;2.70;;;1.30;;
66886;SDS011;67239;51.680;5.976;2023-05-20T11:53:33;3.25;;;1.48;;
66886;SDS011;67239;51.680;5.976;2023-05-20T11:56:19;2.28;;;1.33;;
66886;SDS011;67239;51.680;5.976;2023-05-20T11:59:06;2.88;;;1.30;;
66886;SDS011;67239;51.680;5.976;2023-05-20T12:01:54;2.78;;;1.33;;
66886;SDS011;67239;51.680;5.976;2023-05-20T12:04:40;2.05;;;1.27;;
66886;SDS011;67239;51.680;5.976;2023-05-20T12:07:25;3.83;;;1.77;;
66886;SDS011;67239;51.680;5.976;2023-05-20T12:10:10;6.00;;;1.60;;
66886;SDS011;67239;51.680;5.976;2023-05-20T12:12:57;1.63;;;1.27;;
66886;SDS011;67239;51.680;5.976;2023-05-20T12:15:43;2.55;;;1.50;;
66886;SDS011;67239;51.680;5.976;2023-05-20T12:18:28;2.65;;;1.60;;
66886;SDS011;67239;51.680;5.976;2023-05-20T12:21:14;3.00;;;1.50;;
66886;SDS011;67239;51.680;5.976;2023-05-20T12:23:59;2.47;;;1.40;;
66886;SDS011;67239;51.680;5.976;2023-05-20T12:26:44;2.78;;;1.35;;
66886;SDS011;67239;51.680;5.976;2023-05-20T12:29:30;2.70;;;1.35;;
66886;SDS011;67239;51.680;5.976;2023-05-20T12:32:18;2.83;;;1.42;;
66886;SDS011;67239;51.680;5.976;2023-05-20T12:35:05;2.15;;;1.33;;
66886;SDS011;67239;51.680;5.976;2023-05-20T12:37:51;2.90;;;1.40;;
66886;SDS011;67239;51.680;5.976;2023-05-20T12:40:37;3.15;;;1.40;;
66886;SDS011;67239;51.680;5.976;2023-05-20T12:43:23;1.95;;;1.30;;
66886;SDS011;67239;51.680;5.976;2023-05-20T12:46:08;4.18;;;1.63;;
66886;SDS011;67239;51.680;5.976;2023-05-20T12:48:53;3.85;;;1.45;;
66886;SDS011;67239;51.680;5.976;2023-05-20T12:51:39;5.45;;;1.50;;
66886;SDS011;67239;51.680;5.976;2023-05-20T12:54:24;1.50;;;1.10;;
66886;SDS011;67239;51.680;5.976;2023-05-20T12:57:12;1.33;;;1.23;;
66886;SDS011;67239;51.680;5.976;2023-05-20T12:59:58;2.83;;;1.50;;
66886;SDS011;67239;51.680;5.976;2023-05-20T13:02:43;2.20;;;1.30;;
66886;SDS011;67239;51.680;5.976;2023-05-20T13:05:28;1.70;;;1.33;;
66886;SDS011;67239;51.680;5.976;2023-05-20T13:08:14;2.65;;;1.30;;
66886;SDS011;67239;51.680;5.976;2023-05-20T13:10:59;2.60;;;1.23;;
66886;SDS011;67239;51.680;5.976;2023-05-20T13:13:45;1.65;;;1.23;;
66886;SDS011;67239;51.680;5.976;2023-05-20T13:16:30;2.60;;;1.35;;
66886;SDS011;67239;51.680;5.976;2023-05-20T13:19:16;2.47;;;1.48;;
66886;SDS011;67239;51.680;5.976;2023-05-20T13:22:01;3.45;;;1.40;;
66886;SDS011;67239;51.680;5.976;2023-05-20T13:24:46;2.15;;;1.27;;
66886;SDS011;67239;51.680;5.976;2023-05-20T13:27:32;2.05;;;1.30;;
66886;SDS011;67239;51.680;5.976;2023-05-20T13:30:17;4.13;;;1.55;;
66886;SDS011;67239;51.680;5.976;2023-05-20T13:33:02;1.55;;;1.20;;
66886;SDS011;67239;51.680;5.976;2023-05-20T13:35:48;2.30;;;1.27;;
66886;SDS011;67239;51.680;5.976;2023-05-20T13:38:35;2.13;;;1.33;;
66886;SDS011;67239;51.680;5.976;2023-05-20T13:41:22;3.05;;;1.30;;
66886;SDS011;67239;51.680;5.976;2023-05-20T13:44:11;3.80;;;1.60;;
66886;SDS011;67239;51.680;5.976;2023-05-20T13:46:57;2.40;;;1.35;;
66886;SDS011;67239;51.680;5.976;2023-05-20T13:49:42;2.03;;;1.20;;
66886;SDS011;67239;51.680;5.976;2023-05-20T13:52:27;1.40;;;1.10;;
66886;SDS011;67239;51.680;5.976;2023-05-20T13:55:13;3.33;;;1.35;;
66886;SDS011;67239;51.680;5.976;2023-05-20T13:57:58;5.35;;;2.00;;
66886;SDS011;67239;51.680;5.976;2023-05-20T14:00:43;10.02;;;5.57;;
66886;SDS011;67239;51.680;5.976;2023-05-20T14:03:29;3.25;;;1.98;;
66886;SDS011;67239;51.680;5.976;2023-05-20T14:06:17;3.17;;;1.25;;
66886;SDS011;67239;51.680;5.976;2023-05-20T14:09:02;2.00;;;1.30;;
66886;SDS011;67239;51.680;5.976;2023-05-20T14:11:50;1.67;;;1.38;;
66886;SDS011;67239;51.680;5.976;2023-05-20T14:14:35;3.40;;;1.33;;
66886;SDS011;67239;51.680;5.976;2023-05-20T14:17:21;3.90;;;1.15;;
66886;SDS011;67239;51.680;5.976;2023-05-20T14:20:07;1.60;;;1.30;;
66886;SDS011;67239;51.680;5.976;2023-05-20T14:22:53;2.35;;;1.50;;
66886;SDS011;67239;51.680;5.976;2023-05-20T14:25:39;2.85;;;1.20;;
66886;SDS011;67239;51.680;5.976;2023-05-20T14:28:24;2.70;;;1.33;;
66886;SDS011;67239;51.680;5.976;2023-05-20T14:31:09;1.90;;;1.13;;
66886;SDS011;67239;51.680;5.976;2023-05-20T14:33:55;3.75;;;1.40;;
66886;SDS011;67239;51.680;5.976;2023-05-20T14:36:40;2.33;;;1.13;;
66886;SDS011;67239;51.680;5.976;2023-05-20T14:39:26;2.60;;;1.20;;
66886;SDS011;67239;51.680;5.976;2023-05-20T14:42:12;2.88;;;1.60;;
66886;SDS011;67239;51.680;5.976;2023-05-20T14:44:57;3.42;;;1.20;;
66886;SDS011;67239;51.680;5.976;2023-05-20T14:47:42;2.90;;;1.10;;
66886;SDS011;67239;51.680;5.976;2023-05-20T14:50:27;3.67;;;1.10;;
66886;SDS011;67239;51.680;5.976;2023-05-20T14:53:13;3.38;;;1.40;;
66886;SDS011;67239;51.680;5.976;2023-05-20T14:55:59;2.83;;;1.30;;
66886;SDS011;67239;51.680;5.976;2023-05-20T14:58:44;2.90;;;1.10;;
66886;SDS011;67239;51.680;5.976;2023-05-20T15:01:29;2.47;;;1.10;;
66886;SDS011;67239;51.680;5.976;2023-05-20T15:04:15;2.50;;;1.10;;
66886;SDS011;67239;51.680;5.976;2023-05-20T15:07:00;4.75;;;1.00;;
66886;SDS011;67239;51.680;5.976;2023-05-20T15:09:47;2.75;;;1.13;;
66886;SDS011;67239;51.680;5.976;2023-05-20T15:12:33;1.20;;;1.00;;
66886;SDS011;67239;51.680;5.976;2023-05-20T15:15:19;3.55;;;1.13;;
66886;SDS011;67239;51.680;5.976;2023-05-20T15:18:05;5.05;;;1.02;;
66886;SDS011;67239;51.680;5.976;2023-05-20T15:20:50;2.00;;;1.08;;
66886;SDS011;67239;51.680;5.976;2023-05-20T15:23:36;3.47;;;1.00;;
66886;SDS011;67239;51.680;5.976;2023-05-20T15:26:22;2.25;;;1.20;;
66886;SDS011;67239;51.680;5.976;2023-05-20T15:29:08;1.80;;;1.08;;
66886;SDS011;67239;51.680;5.976;2023-05-20T15:31:53;1.48;;;0.85;;
66886;SDS011;67239;51.680;5.976;2023-05-20T15:34:39;2.60;;;1.00;;
66886;SDS011;67239;51.680;5.976;2023-05-20T15:37:24;4.03;;;1.17;;
66886;SDS011;67239;51.680;5.976;2023-05-20T15:40:10;4.38;;;1.05;;
66886;SDS011;67239;51.680;5.976;2023-05-20T15:42:58;1.65;;;1.00;;
66886;SDS011;67239;51.680;5.976;2023-05-20T15:45:44;2.08;;;0.93;;
66886;SDS011;67239;51.680;5.976;2023-05-20T15:48:32;1.30;;;0.82;;
66886;SDS011;67239;51.680;5.976;2023-05-20T15:51:19;1.95;;;1.20;;
66886;SDS011;67239;51.680;5.976;2023-05-20T15:54:04;2.75;;;1.05;;
66886;SDS011;67239;51.680;5.976;2023-05-20T15:56:50;1.63;;;0.95;;
66886;SDS011;67239;51.680;5.976;2023-05-20T15:59:36;3.30;;;1.00;;
66886;SDS011;67239;51.680;5.976;2023-05-20T16:02:22;1.50;;;1.00;;
66886;SDS011;67239;51.680;5.976;2023-05-20T16:05:09;3.65;;;1.00;;
66886;SDS011;67239;51.680;5.976;2023-05-20T16:07:57;2.42;;;0.90;;
66886;SDS011;67239;51.680;5.976;2023-05-20T16:10:43;1.83;;;1.17;;
66886;SDS011;67239;51.680;5.976;2023-05-20T16:13:31;2.53;;;0.80;;
66886;SDS011;67239;51.680;5.976;2023-05-20T16:16:18;4.00;;;1.00;;
66886;SDS011;67239;51.680;5.976;2023-05-20T16:19:05;3.50;;;0.88;;
66886;SDS011;67239;51.680;5.976;2023-05-20T16:21:50;2.28;;;0.80;;
66886;SDS011;67239;51.680;5.976;2023-05-20T16:24:35;4.50;;;1.27;;
66886;SDS011;67239;51.680;5.976;2023-05-20T16:27:21;1.67;;;0.85;;
66886;SDS011;67239;51.680;5.976;2023-05-20T16:30:06;1.42;;;0.90;;
66886;SDS011;67239;51.680;5.976;2023-05-20T16:32:55;1.13;;;0.73;;
66886;SDS011;67239;51.680;5.976;2023-05-20T16:35:41;2.00;;;0.80;;
66886;SDS011;67239;51.680;5.976;2023-05-20T16:38:26;2.05;;;1.00;;
66886;SDS011;67239;51.680;5.976;2023-05-20T16:41:11;1.63;;;0.88;;
66886;SDS011;67239;51.680;5.976;2023-05-20T16:43:59;3.03;;;1.10;;
66886;SDS011;67239;51.680;5.976;2023-05-20T16:46:45;2.42;;;0.90;;
66886;SDS011;67239;51.680;5.976;2023-05-20T16:49:30;3.92;;;1.00;;
66886;SDS011;67239;51.680;5.976;2023-05-20T16:52:16;1.75;;;1.10;;